sensor_id;sensor_type;location;lat;lon;timestamp;pressure;altitude;pressure_sealevel;temperature;humidity
65329;BME280;51941;52.210;5.158;2024-01-10T00:02:22;103251.75;;;-4.52;62.42
65329;BME280;51941;52.210;5.158;2024-01-10T00:04:50;103261.44;;;-4.46;62.53
65329;BME280;51941;52.210;5.158;2024-01-10T00:07:17;103256.41;;;-4.48;62.82
65329;BME280;51941;52.210;5.158;2024-01-10T00:09:43;103256.81;;;-4.51;62.56
65329;BME280;51941;52.210;5.158;2024-01-10T00:12:11;103248.91;;;-4.51;62.58
65329;BME280;51941;52.210;5.158;2024-01-10T00:14:38;103235.97;;;-4.52;62.48
65329;BME280;51941;52.210;5.158;2024-01-10T00:17:05;103242.66;;;-4.56;62.42
65329;BME280;51941;52.210;5.158;2024-01-10T00:19:31;103243.84;;;-4.52;62.62
65329;BME280;51941;52.210;5.158;2024-01-10T00:21:59;103240.09;;;-4.70;63.08
65329;BME280;51941;52.210;5.158;2024-01-10T00:24:26;103236.81;;;-4.59;62.79
65329;BME280;51941;52.210;5.158;2024-01-10T00:26:53;103233.13;;;-4.51;62.51
65329;BME280;51941;52.210;5.158;2024-01-10T00:29:20;103228.47;;;-4.49;62.29
65329;BME280;51941;52.210;5.158;2024-01-10T00:31:47;103240.03;;;-4.56;62.51
65329;BME280;51941;52.210;5.158;2024-01-10T00:34:14;103232.38;;;-4.58;62.76
65329;BME280;51941;52.210;5.158;2024-01-10T00:36:41;103220.81;;;-4.57;62.62
65329;BME280;51941;52.210;5.158;2024-01-10T00:39:09;103229.94;;;-4.66;62.90
65329;BME280;51941;52.210;5.158;2024-01-10T00:41:35;103225.88;;;-4.55;62.51
65329;BME280;51941;52.210;5.158;2024-01-10T00:44:02;103221.63;;;-4.56;62.60
65329;BME280;51941;52.210;5.158;2024-01-10T00:46:29;103226.09;;;-4.57;62.88
65329;BME280;51941;52.210;5.158;2024-01-10T00:48:56;103222.44;;;-4.56;62.64
65329;BME280;51941;52.210;5.158;2024-01-10T00:51:21;103209.91;;;-4.54;62.25
65329;BME280;51941;52.210;5.158;2024-01-10T00:53:48;103220.41;;;-4.54;62.67
65329;BME280;51941;52.210;5.158;2024-01-10T00:56:16;103216.38;;;-4.56;62.46
65329;BME280;51941;52.210;5.158;2024-01-10T00:58:43;103212.97;;;-4.70;63.03
65329;BME280;51941;52.210;5.158;2024-01-10T01:01:09;103211.75;;;-4.61;62.68
65329;BME280;51941;52.210;5.158;2024-01-10T01:03:36;103214.16;;;-4.60;62.61
65329;BME280;51941;52.210;5.158;2024-01-10T01:06:03;103205.25;;;-4.59;62.70
65329;BME280;51941;52.210;5.158;2024-01-10T01:08:30;103221.84;;;-4.58;63.01
65329;BME280;51941;52.210;5.158;2024-01-10T01:10:56;103219.44;;;-4.66;63.22
65329;BME280;51941;52.210;5.158;2024-01-10T01:13:24;103220.28;;;-4.79;64.05
65329;BME280;51941;52.210;5.158;2024-01-10T01:15:51;103217.63;;;-4.72;63.77
65329;BME280;51941;52.210;5.158;2024-01-10T01:18:18;103216.81;;;-4.66;63.85
65329;BME280;51941;52.210;5.158;2024-01-10T01:20:45;103213.63;;;-4.82;64.73
65329;BME280;51941;52.210;5.158;2024-01-10T01:23:14;103216.03;;;-4.73;64.63
65329;BME280;51941;52.210;5.158;2024-01-10T01:25:41;103215.22;;;-4.81;64.67
65329;BME280;51941;52.210;5.158;2024-01-10T01:28:07;103210.38;;;-4.77;64.66
65329;BME280;51941;52.210;5.158;2024-01-10T01:30:36;103212.81;;;-4.82;65.25
65329;BME280;51941;52.210;5.158;2024-01-10T01:33:04;103209.19;;;-4.81;65.58
65329;BME280;51941;52.210;5.158;2024-01-10T01:35:31;103212.03;;;-4.89;65.82
65329;BME280;51941;52.210;5.158;2024-01-10T01:37:57;103211.00;;;-4.88;65.88
65329;BME280;51941;52.210;5.158;2024-01-10T01:40:24;103212.03;;;-4.96;66.30
65329;BME280;51941;52.210;5.158;2024-01-10T01:42:51;103208.81;;;-4.91;66.37
65329;BME280;51941;52.210;5.158;2024-01-10T01:45:19;103208.59;;;-4.96;66.74
65329;BME280;51941;52.210;5.158;2024-01-10T01:47:47;103204.34;;;-4.91;66.21
65329;BME280;51941;52.210;5.158;2024-01-10T01:50:15;103208.41;;;-4.95;66.51
65329;BME280;51941;52.210;5.158;2024-01-10T01:52:42;103201.53;;;-4.96;66.73
65329;BME280;51941;52.210;5.158;2024-01-10T01:55:10;103194.50;;;-5.09;67.31
65329;BME280;51941;52.210;5.158;2024-01-10T01:57:37;103192.22;;;-4.99;66.66
65329;BME280;51941;52.210;5.158;2024-01-10T02:00:05;103203.97;;;-5.01;66.63
65329;BME280;51941;52.210;5.158;2024-01-10T02:02:32;103196.50;;;-5.04;66.95
65329;BME280;51941;52.210;5.158;2024-01-10T02:05:02;103200.13;;;-4.99;66.56
65329;BME280;51941;52.210;5.158;2024-01-10T02:07:29;103193.06;;;-5.05;66.70
65329;BME280;51941;52.210;5.158;2024-01-10T02:09:55;103197.91;;;-5.08;66.61
65329;BME280;51941;52.210;5.158;2024-01-10T02:12:22;103196.88;;;-5.01;66.19
65329;BME280;51941;52.210;5.158;2024-01-10T02:14:50;103191.22;;;-5.04;66.62
65329;BME280;51941;52.210;5.158;2024-01-10T02:17:16;103195.47;;;-5.10;66.51
65329;BME280;51941;52.210;5.158;2024-01-10T02:19:43;103192.47;;;-5.20;66.93
65329;BME280;51941;52.210;5.158;2024-01-10T02:22:11;103192.44;;;-5.13;66.75
65329;BME280;51941;52.210;5.158;2024-01-10T02:24:38;103183.56;;;-5.12;67.01
65329;BME280;51941;52.210;5.158;2024-01-10T02:27:07;103181.56;;;-5.17;67.25
65329;BME280;51941;52.210;5.158;2024-01-10T02:29:34;103177.09;;;-5.10;66.71
65329;BME280;51941;52.210;5.158;2024-01-10T02:32:00;103174.25;;;-5.08;66.77
65329;BME280;51941;52.210;5.158;2024-01-10T02:34:29;103174.28;;;-5.15;67.20
65329;BME280;51941;52.210;5.158;2024-01-10T02:36:56;103174.28;;;-5.22;67.16
65329;BME280;51941;52.210;5.158;2024-01-10T02:39:22;103179.13;;;-5.12;66.96
65329;BME280;51941;52.210;5.158;2024-01-10T02:41:49;103164.38;;;-5.20;66.98
65329;BME280;51941;52.210;5.158;2024-01-10T02:44:17;103172.25;;;-5.20;66.76
65329;BME280;51941;52.210;5.158;2024-01-10T02:46:45;103166.00;;;-5.19;67.15
65329;BME280;51941;52.210;5.158;2024-01-10T02:49:11;103166.81;;;-5.18;67.17
65329;BME280;51941;52.210;5.158;2024-01-10T02:51:38;103166.81;;;-5.31;67.40
65329;BME280;51941;52.210;5.158;2024-01-10T02:54:05;103157.31;;;-5.19;67.31
65329;BME280;51941;52.210;5.158;2024-01-10T02:56:32;103168.03;;;-5.21;67.21
65329;BME280;51941;52.210;5.158;2024-01-10T02:58:58;103161.16;;;-5.15;66.86
65329;BME280;51941;52.210;5.158;2024-01-10T03:01:26;103165.19;;;-5.19;67.51
65329;BME280;51941;52.210;5.158;2024-01-10T03:03:53;103155.31;;;-5.17;67.12
65329;BME280;51941;52.210;5.158;2024-01-10T03:06:20;103162.97;;;-5.22;67.78
65329;BME280;51941;52.210;5.158;2024-01-10T03:08:49;103157.94;;;-5.17;67.45
65329;BME280;51941;52.210;5.158;2024-01-10T03:11:15;103148.63;;;-5.20;67.54
65329;BME280;51941;52.210;5.158;2024-01-10T03:13:43;103149.22;;;-5.18;67.06
65329;BME280;51941;52.210;5.158;2024-01-10T03:16:10;103149.25;;;-5.24;67.47
65329;BME280;51941;52.210;5.158;2024-01-10T03:18:38;103144.16;;;-5.19;67.18
65329;BME280;51941;52.210;5.158;2024-01-10T03:21:05;103141.16;;;-5.23;67.04
65329;BME280;51941;52.210;5.158;2024-01-10T03:23:32;103136.50;;;-5.21;66.86
65329;BME280;51941;52.210;5.158;2024-01-10T03:25:58;103140.75;;;-5.20;67.06
65329;BME280;51941;52.210;5.158;2024-01-10T03:28:25;103141.53;;;-5.19;66.43
65329;BME280;51941;52.210;5.158;2024-01-10T03:30:52;103137.94;;;-5.31;66.49
65329;BME280;51941;52.210;5.158;2024-01-10T03:33:18;103138.53;;;-5.23;65.78
65329;BME280;51941;52.210;5.158;2024-01-10T03:35:46;103137.13;;;-5.32;65.68
65329;BME280;51941;52.210;5.158;2024-01-10T03:38:13;103127.81;;;-5.21;65.48
65329;BME280;51941;52.210;5.158;2024-01-10T03:40:41;103133.88;;;-5.21;65.31
65329;BME280;51941;52.210;5.158;2024-01-10T03:43:08;103129.03;;;-5.17;64.77
65329;BME280;51941;52.210;5.158;2024-01-10T03:45:35;103135.88;;;-5.16;64.37
65329;BME280;51941;52.210;5.158;2024-01-10T03:48:02;103123.53;;;-5.15;63.76
65329;BME280;51941;52.210;5.158;2024-01-10T03:50:29;103136.28;;;-5.19;64.01
65329;BME280;51941;52.210;5.158;2024-01-10T03:52:57;103127.19;;;-5.16;63.11
65329;BME280;51941;52.210;5.158;2024-01-10T03:55:23;103132.06;;;-5.20;63.51
65329;BME280;51941;52.210;5.158;2024-01-10T03:57:50;103131.81;;;-5.12;62.95
65329;BME280;51941;52.210;5.158;2024-01-10T04:00:17;103125.34;;;-5.09;62.54
65329;BME280;51941;52.210;5.158;2024-01-10T04:02:44;103133.22;;;-5.09;62.52
65329;BME280;51941;52.210;5.158;2024-01-10T04:05:11;103128.56;;;-5.07;62.54
65329;BME280;51941;52.210;5.158;2024-01-10T04:07:39;103129.81;;;-5.10;62.08
65329;BME280;51941;52.210;5.158;2024-01-10T04:10:09;103125.56;;;-5.11;62.38
65329;BME280;51941;52.210;5.158;2024-01-10T04:12:36;103123.75;;;-5.10;61.68
65329;BME280;51941;52.210;5.158;2024-01-10T04:15:04;103125.94;;;-5.07;62.06
65329;BME280;51941;52.210;5.158;2024-01-10T04:17:31;103118.88;;;-5.13;61.96
65329;BME280;51941;52.210;5.158;2024-01-10T04:19:58;103124.75;;;-5.11;62.25
65329;BME280;51941;52.210;5.158;2024-01-10T04:22:25;103125.34;;;-5.09;62.37
65329;BME280;51941;52.210;5.158;2024-01-10T04:24:53;103121.31;;;-5.12;62.78
65329;BME280;51941;52.210;5.158;2024-01-10T04:27:21;103123.75;;;-5.10;63.01
65329;BME280;51941;52.210;5.158;2024-01-10T04:29:48;103125.56;;;-5.11;63.28
65329;BME280;51941;52.210;5.158;2024-01-10T04:32:14;103120.72;;;-5.14;63.77
65329;BME280;51941;52.210;5.158;2024-01-10T04:34:41;103119.31;;;-5.16;63.79
65329;BME280;51941;52.210;5.158;2024-01-10T04:37:08;103125.78;;;-5.19;64.21
65329;BME280;51941;52.210;5.158;2024-01-10T04:39:35;103121.34;;;-5.25;65.14
65329;BME280;51941;52.210;5.158;2024-01-10T04:42:03;103115.91;;;-5.24;65.17
65329;BME280;51941;52.210;5.158;2024-01-10T04:44:31;103115.28;;;-5.26;64.97
65329;BME280;51941;52.210;5.158;2024-01-10T04:46:58;103111.88;;;-5.26;65.36
65329;BME280;51941;52.210;5.158;2024-01-10T04:49:25;103111.44;;;-5.23;65.15
65329;BME280;51941;52.210;5.158;2024-01-10T04:51:52;103116.94;;;-5.25;65.09
65329;BME280;51941;52.210;5.158;2024-01-10T04:54:19;103108.22;;;-5.25;65.44
65329;BME280;51941;52.210;5.158;2024-01-10T04:56:45;103107.63;;;-5.27;65.25
65329;BME280;51941;52.210;5.158;2024-01-10T04:59:12;103106.25;;;-5.36;65.78
65329;BME280;51941;52.210;5.158;2024-01-10T05:01:40;103116.31;;;-5.33;65.51
65329;BME280;51941;52.210;5.158;2024-01-10T05:04:07;103106.25;;;-5.36;66.04
65329;BME280;51941;52.210;5.158;2024-01-10T05:06:34;103111.28;;;-5.35;65.86
65329;BME280;51941;52.210;5.158;2024-01-10T05:09:00;103100.75;;;-5.35;65.96
65329;BME280;51941;52.210;5.158;2024-01-10T05:11:27;103098.38;;;-5.36;66.10
65329;BME280;51941;52.210;5.158;2024-01-10T05:13:55;103102.78;;;-5.37;65.57
65329;BME280;51941;52.210;5.158;2024-01-10T05:16:21;103093.91;;;-5.36;65.58
65329;BME280;51941;52.210;5.158;2024-01-10T05:18:49;103087.03;;;-5.37;65.66
65329;BME280;51941;52.210;5.158;2024-01-10T05:21:17;103097.75;;;-5.39;65.75
65329;BME280;51941;52.210;5.158;2024-01-10T05:23:43;103089.88;;;-5.39;65.70
65329;BME280;51941;52.210;5.158;2024-01-10T05:26:10;103094.75;;;-5.42;65.65
65329;BME280;51941;52.210;5.158;2024-01-10T05:28:37;103088.47;;;-5.41;65.57
65329;BME280;51941;52.210;5.158;2024-01-10T05:31:04;103087.25;;;-5.45;65.71
65329;BME280;51941;52.210;5.158;2024-01-10T05:33:30;103093.53;;;-5.46;65.61
65329;BME280;51941;52.210;5.158;2024-01-10T05:35:58;103100.81;;;-5.48;65.82
65329;BME280;51941;52.210;5.158;2024-01-10T05:38:25;103098.38;;;-5.50;65.78
65329;BME280;51941;52.210;5.158;2024-01-10T05:40:52;103099.38;;;-5.44;65.50
65329;BME280;51941;52.210;5.158;2024-01-10T05:43:19;103097.00;;;-5.52;65.83
65329;BME280;51941;52.210;5.158;2024-01-10T05:45:47;103102.41;;;-5.41;65.32
65329;BME280;51941;52.210;5.158;2024-01-10T05:48:13;103093.31;;;-5.38;64.87
65329;BME280;51941;52.210;5.158;2024-01-10T05:50:42;103093.91;;;-5.43;65.20
65329;BME280;51941;52.210;5.158;2024-01-10T05:53:10;103092.13;;;-5.42;64.94
65329;BME280;51941;52.210;5.158;2024-01-10T05:55:39;103088.66;;;-5.43;65.14
65329;BME280;51941;52.210;5.158;2024-01-10T05:58:06;103085.63;;;-5.40;64.66
65329;BME280;51941;52.210;5.158;2024-01-10T06:00:35;103095.34;;;-5.40;64.46
65329;BME280;51941;52.210;5.158;2024-01-10T06:03:01;103093.31;;;-5.38;64.27
65329;BME280;51941;52.210;5.158;2024-01-10T06:05:28;103081.19;;;-5.39;64.10
65329;BME280;51941;52.210;5.158;2024-01-10T06:07:57;103083.41;;;-5.36;64.36
65329;BME280;51941;52.210;5.158;2024-01-10T06:10:25;103085.63;;;-5.40;64.29
65329;BME280;51941;52.210;5.158;2024-01-10T06:12:52;103077.78;;;-5.46;64.22
65329;BME280;51941;52.210;5.158;2024-01-10T06:15:18;103071.09;;;-5.42;64.19
65329;BME280;51941;52.210;5.158;2024-01-10T06:17:45;103073.31;;;-5.39;63.88
65329;BME280;51941;52.210;5.158;2024-01-10T06:20:12;103063.81;;;-5.47;63.62
65329;BME280;51941;52.210;5.158;2024-01-10T06:22:39;103070.28;;;-5.36;63.45
65329;BME280;51941;52.210;5.158;2024-01-10T06:25:07;103059.16;;;-5.38;62.62
65329;BME280;51941;52.210;5.158;2024-01-10T06:27:35;103062.56;;;-5.31;62.63
65329;BME280;51941;52.210;5.158;2024-01-10T06:30:02;103055.53;;;-5.37;63.07
65329;BME280;51941;52.210;5.158;2024-01-10T06:32:29;103066.03;;;-5.30;62.64
65329;BME280;51941;52.210;5.158;2024-01-10T06:34:56;103064.59;;;-5.33;63.02
65329;BME280;51941;52.210;5.158;2024-01-10T06:37:25;103057.13;;;-5.29;62.70
65329;BME280;51941;52.210;5.158;2024-01-10T06:39:52;103066.81;;;-5.30;62.77
65329;BME280;51941;52.210;5.158;2024-01-10T06:42:19;103078.16;;;-5.36;62.61
65329;BME280;51941;52.210;5.158;2024-01-10T06:44:48;103084.81;;;-5.33;62.92
65329;BME280;51941;52.210;5.158;2024-01-10T06:47:14;103066.25;;;-5.39;62.99
65329;BME280;51941;52.210;5.158;2024-01-10T06:49:41;103072.31;;;-5.38;63.15
65329;BME280;51941;52.210;5.158;2024-01-10T06:52:08;103069.69;;;-5.38;62.87
65329;BME280;51941;52.210;5.158;2024-01-10T06:54:36;103071.72;;;-5.40;62.83
65329;BME280;51941;52.210;5.158;2024-01-10T06:57:03;103069.28;;;-5.42;62.98
65329;BME280;51941;52.210;5.158;2024-01-10T06:59:29;103069.69;;;-5.38;63.09
65329;BME280;51941;52.210;5.158;2024-01-10T07:01:57;103068.44;;;-5.35;63.10
65329;BME280;51941;52.210;5.158;2024-01-10T07:04:26;103073.09;;;-5.38;62.84
65329;BME280;51941;52.210;5.158;2024-01-10T07:06:53;103063.59;;;-5.32;62.01
65329;BME280;51941;52.210;5.158;2024-01-10T07:09:20;103078.13;;;-5.29;61.52
65329;BME280;51941;52.210;5.158;2024-01-10T07:11:46;103069.25;;;-5.35;60.72
65329;BME280;51941;52.210;5.158;2024-01-10T07:14:14;103076.94;;;-5.33;60.66
65329;BME280;51941;52.210;5.158;2024-01-10T07:16:41;103074.31;;;-5.27;60.08
65329;BME280;51941;52.210;5.158;2024-01-10T07:19:12;103074.31;;;-5.27;59.05
65329;BME280;51941;52.210;5.158;2024-01-10T07:21:39;103075.25;;;-5.21;58.91
65329;BME280;51941;52.210;5.158;2024-01-10T07:24:07;103082.16;;;-5.20;58.57
65329;BME280;51941;52.210;5.158;2024-01-10T07:26:34;103087.41;;;-5.20;58.16
65329;BME280;51941;52.210;5.158;2024-01-10T07:29:01;103090.03;;;-5.20;57.98
65329;BME280;51941;52.210;5.158;2024-01-10T07:31:28;103101.34;;;-5.20;58.15
65329;BME280;51941;52.210;5.158;2024-01-10T07:33:55;103095.88;;;-5.18;57.81
65329;BME280;51941;52.210;5.158;2024-01-10T07:36:23;103096.09;;;-5.20;57.50
65329;BME280;51941;52.210;5.158;2024-01-10T07:38:52;103089.66;;;-5.30;57.34
65329;BME280;51941;52.210;5.158;2024-01-10T07:41:18;103103.19;;;-5.27;57.55
65329;BME280;51941;52.210;5.158;2024-01-10T07:43:45;103102.16;;;-5.26;57.05
65329;BME280;51941;52.210;5.158;2024-01-10T07:46:12;103110.66;;;-5.24;56.90
65329;BME280;51941;52.210;5.158;2024-01-10T07:48:39;103115.91;;;-5.24;57.10
65329;BME280;51941;52.210;5.158;2024-01-10T07:51:08;103112.28;;;-5.29;57.27
65329;BME280;51941;52.210;5.158;2024-01-10T07:53:36;103096.28;;;-5.21;56.96
65329;BME280;51941;52.210;5.158;2024-01-10T07:56:05;103101.53;;;-5.21;56.79
65329;BME280;51941;52.210;5.158;2024-01-10T07:58:32;103105.78;;;-5.20;56.60
65329;BME280;51941;52.210;5.158;2024-01-10T08:00:58;103096.50;;;-5.23;56.65
65329;BME280;51941;52.210;5.158;2024-01-10T08:03:25;103098.31;;;-5.23;56.67
65329;BME280;51941;52.210;5.158;2024-01-10T08:05:52;103107.19;;;-5.18;56.93
65329;BME280;51941;52.210;5.158;2024-01-10T08:08:19;103117.53;;;-5.29;57.10
65329;BME280;51941;52.210;5.158;2024-01-10T08:10:47;103101.75;;;-5.23;56.87
65329;BME280;51941;52.210;5.158;2024-01-10T08:13:13;103093.25;;;-5.18;56.79
65329;BME280;51941;52.210;5.158;2024-01-10T08:15:40;103108.22;;;-5.19;56.77
65329;BME280;51941;52.210;5.158;2024-01-10T08:18:07;103114.66;;;-5.21;56.84
65329;BME280;51941;52.210;5.158;2024-01-10T08:20:34;103118.31;;;-5.22;57.12
65329;BME280;51941;52.210;5.158;2024-01-10T08:23:00;103115.66;;;-5.15;57.09
65329;BME280;51941;52.210;5.158;2024-01-10T08:25:27;103120.53;;;-5.12;56.65
65329;BME280;51941;52.210;5.158;2024-01-10T08:27:56;103117.50;;;-5.16;56.67
65329;BME280;51941;52.210;5.158;2024-01-10T08:30:23;103102.53;;;-5.09;56.51
65329;BME280;51941;52.210;5.158;2024-01-10T08:32:50;103098.47;;;-5.05;56.42
65329;BME280;51941;52.210;5.158;2024-01-10T08:35:17;103106.16;;;-5.03;56.40
65329;BME280;51941;52.210;5.158;2024-01-10T08:37:44;103116.88;;;-5.05;55.97
65329;BME280;51941;52.210;5.158;2024-01-10T08:40:12;103125.16;;;-5.08;55.92
65329;BME280;51941;52.210;5.158;2024-01-10T08:42:40;103106.94;;;-5.09;55.68
65329;BME280;51941;52.210;5.158;2024-01-10T08:45:09;103098.44;;;-4.98;55.41
65329;BME280;51941;52.210;5.158;2024-01-10T08:47:37;103100.81;;;-4.90;55.25
65329;BME280;51941;52.210;5.158;2024-01-10T08:50:05;103097.78;;;-4.87;55.06
65329;BME280;51941;52.210;5.158;2024-01-10T08:52:34;103103.44;;;-4.90;55.30
65329;BME280;51941;52.210;5.158;2024-01-10T08:55:00;103105.44;;;-4.79;55.26
65329;BME280;51941;52.210;5.158;2024-01-10T08:57:27;103103.19;;;-4.75;54.62
65329;BME280;51941;52.210;5.158;2024-01-10T08:59:55;103098.13;;;-4.70;54.54
65329;BME280;51941;52.210;5.158;2024-01-10T09:02:23;103109.22;;;-4.68;54.64
65329;BME280;51941;52.210;5.158;2024-01-10T09:04:50;103098.06;;;-4.63;54.91
65329;BME280;51941;52.210;5.158;2024-01-10T09:07:17;103101.31;;;-4.61;54.37
65329;BME280;51941;52.210;5.158;2024-01-10T09:09:45;103104.31;;;-4.57;54.37
65329;BME280;51941;52.210;5.158;2024-01-10T09:12:12;103101.44;;;-4.49;54.00
65329;BME280;51941;52.210;5.158;2024-01-10T09:14:38;103092.75;;;-4.50;53.37
65329;BME280;51941;52.210;5.158;2024-01-10T09:17:05;103095.50;;;-4.38;53.24
65329;BME280;51941;52.210;5.158;2024-01-10T09:19:34;103082.72;;;-4.34;53.56
65329;BME280;51941;52.210;5.158;2024-01-10T09:22:01;103091.22;;;-4.32;53.55
65329;BME280;51941;52.210;5.158;2024-01-10T09:24:27;103095.41;;;-4.25;52.99
65329;BME280;51941;52.210;5.158;2024-01-10T09:26:55;103088.75;;;-4.27;52.57
65329;BME280;51941;52.210;5.158;2024-01-10T09:29:23;103106.69;;;-4.18;52.85
65329;BME280;51941;52.210;5.158;2024-01-10T09:31:51;103091.56;;;-4.22;52.95
65329;BME280;51941;52.210;5.158;2024-01-10T09:34:17;103086.22;;;-4.15;52.46
65329;BME280;51941;52.210;5.158;2024-01-10T09:36:45;103089.63;;;-4.08;52.27
65329;BME280;51941;52.210;5.158;2024-01-10T09:39:13;103088.78;;;-4.02;52.38
65329;BME280;51941;52.210;5.158;2024-01-10T09:41:47;103099.09;;;-4.01;51.98
65329;BME280;51941;52.210;5.158;2024-01-10T09:44:17;103095.59;;;-3.94;51.70
65329;BME280;51941;52.210;5.158;2024-01-10T09:46:47;103089.63;;;-4.08;51.84
65329;BME280;51941;52.210;5.158;2024-01-10T09:49:14;103091.34;;;-3.95;51.88
65329;BME280;51941;52.210;5.158;2024-01-10T09:51:41;103089.47;;;-3.88;51.15
65329;BME280;51941;52.210;5.158;2024-01-10T09:54:09;103094.72;;;-3.88;51.12
65329;BME280;51941;52.210;5.158;2024-01-10T09:56:36;103089.97;;;-3.80;50.70
65329;BME280;51941;52.210;5.158;2024-01-10T09:59:04;103078.59;;;-3.73;50.47
65329;BME280;51941;52.210;5.158;2024-01-10T10:01:36;103094.16;;;-3.72;50.29
65329;BME280;51941;52.210;5.158;2024-01-10T10:04:04;103098.44;;;-3.71;50.35
65329;BME280;51941;52.210;5.158;2024-01-10T10:06:33;103091.88;;;-3.62;49.77
65329;BME280;51941;52.210;5.158;2024-01-10T10:08:59;103086.22;;;-3.65;49.28
65329;BME280;51941;52.210;5.158;2024-01-10T10:11:28;103088.56;;;-3.57;49.76
65329;BME280;51941;52.210;5.158;2024-01-10T10:13:54;103081.63;;;-3.51;48.65
65329;BME280;51941;52.210;5.158;2024-01-10T10:16:24;103090.50;;;-3.46;48.58
65329;BME280;51941;52.210;5.158;2024-01-10T10:18:51;103079.97;;;-3.46;48.95
65329;BME280;51941;52.210;5.158;2024-01-10T10:21:24;103084.94;;;-3.37;48.93
65329;BME280;51941;52.210;5.158;2024-01-10T10:23:58;103083.25;;;-3.32;48.49
65329;BME280;51941;52.210;5.158;2024-01-10T10:26:28;103081.91;;;-3.23;48.83
65329;BME280;51941;52.210;5.158;2024-01-10T10:28:54;103084.13;;;-3.20;48.27
65329;BME280;51941;52.210;5.158;2024-01-10T10:31:23;103077.00;;;-3.19;48.46
65329;BME280;51941;52.210;5.158;2024-01-10T10:33:50;103078.63;;;-3.18;48.04
65329;BME280;51941;52.210;5.158;2024-01-10T10:36:17;103074.91;;;-3.10;48.09
65329;BME280;51941;52.210;5.158;2024-01-10T10:38:45;103075.38;;;-3.02;47.83
65329;BME280;51941;52.210;5.158;2024-01-10T10:41:14;103063.09;;;-3.08;48.06
65329;BME280;51941;52.210;5.158;2024-01-10T10:43:42;103076.28;;;-3.08;48.23
65329;BME280;51941;52.210;5.158;2024-01-10T10:46:10;103074.66;;;-2.90;48.54
65329;BME280;51941;52.210;5.158;2024-01-10T10:48:38;103063.88;;;-2.89;48.40
65329;BME280;51941;52.210;5.158;2024-01-10T10:51:06;103068.53;;;-2.72;48.41
65329;BME280;51941;52.210;5.158;2024-01-10T10:53:34;103071.41;;;-2.62;48.73
65329;BME280;51941;52.210;5.158;2024-01-10T10:56:03;103068.31;;;-2.71;47.68
65329;BME280;51941;52.210;5.158;2024-01-10T10:58:33;103061.81;;;-2.56;47.18
65329;BME280;51941;52.210;5.158;2024-01-10T11:01:03;103070.28;;;-2.54;47.45
65329;BME280;51941;52.210;5.158;2024-01-10T11:03:34;103069.84;;;-2.51;47.17
65329;BME280;51941;52.210;5.158;2024-01-10T11:06:02;103064.25;;;-2.43;46.43
65329;BME280;51941;52.210;5.158;2024-01-10T11:08:31;103066.75;;;-2.48;46.35
65329;BME280;51941;52.210;5.158;2024-01-10T11:11:02;103064.13;;;-2.36;46.22
65329;BME280;51941;52.210;5.158;2024-01-10T11:13:41;103067.34;;;-2.34;46.20
65329;BME280;51941;52.210;5.158;2024-01-10T11:16:40;103068.16;;;-2.34;45.84
65329;BME280;51941;52.210;5.158;2024-01-10T11:19:25;103056.94;;;-2.29;46.05
65329;BME280;51941;52.210;5.158;2024-01-10T11:22:06;103059.25;;;-2.21;45.77
65329;BME280;51941;52.210;5.158;2024-01-10T11:24:37;103065.53;;;-2.22;45.63
65329;BME280;51941;52.210;5.158;2024-01-10T11:27:09;103063.59;;;-2.15;45.73
65329;BME280;51941;52.210;5.158;2024-01-10T11:29:37;103066.81;;;-2.13;45.27
65329;BME280;51941;52.210;5.158;2024-01-10T11:32:06;103062.13;;;-2.11;45.26
65329;BME280;51941;52.210;5.158;2024-01-10T11:34:36;103060.75;;;-2.02;45.49
65329;BME280;51941;52.210;5.158;2024-01-10T11:37:09;103049.63;;;-2.04;45.37
65329;BME280;51941;52.210;5.158;2024-01-10T11:39:36;103051.34;;;-1.97;45.53
65329;BME280;51941;52.210;5.158;2024-01-10T11:42:03;103045.47;;;-1.88;45.84
65329;BME280;51941;52.210;5.158;2024-01-10T11:44:30;103052.13;;;-1.85;45.63
65329;BME280;51941;52.210;5.158;2024-01-10T11:46:58;103053.63;;;-1.89;46.06
65329;BME280;51941;52.210;5.158;2024-01-10T11:49:26;103044.69;;;-1.76;46.30
65329;BME280;51941;52.210;5.158;2024-01-10T11:51:55;103045.81;;;-1.72;46.44
65329;BME280;51941;52.210;5.158;2024-01-10T11:54:42;103056.63;;;-1.74;45.99
65329;BME280;51941;52.210;5.158;2024-01-10T11:57:13;103041.22;;;-1.77;46.07
65329;BME280;51941;52.210;5.158;2024-01-10T11:59:41;103045.47;;;-1.88;46.58
65329;BME280;51941;52.210;5.158;2024-01-10T12:02:10;103052.25;;;-1.68;46.16
65329;BME280;51941;52.210;5.158;2024-01-10T12:04:38;103039.72;;;-1.73;46.61
65329;BME280;51941;52.210;5.158;2024-01-10T12:07:07;103040.91;;;-1.81;46.58
65329;BME280;51941;52.210;5.158;2024-01-10T12:09:34;103034.13;;;-1.88;46.66
65329;BME280;51941;52.210;5.158;2024-01-10T12:12:00;103026.97;;;-1.64;46.93
65329;BME280;51941;52.210;5.158;2024-01-10T12:14:27;103025.47;;;-1.72;47.03
65329;BME280;51941;52.210;5.158;2024-01-10T12:16:56;103027.88;;;-1.58;46.62
65329;BME280;51941;52.210;5.158;2024-01-10T12:19:22;103024.53;;;-1.54;46.44
65329;BME280;51941;52.210;5.158;2024-01-10T12:21:50;103022.47;;;-1.64;46.32
65329;BME280;51941;52.210;5.158;2024-01-10T12:24:17;103019.03;;;-1.52;47.04
65329;BME280;51941;52.210;5.158;2024-01-10T12:26:44;103013.25;;;-1.49;47.01
65329;BME280;51941;52.210;5.158;2024-01-10T12:29:12;103017.84;;;-1.45;46.87
65329;BME280;51941;52.210;5.158;2024-01-10T12:31:39;103009.81;;;-1.50;47.21
65329;BME280;51941;52.210;5.158;2024-01-10T12:34:07;103021.50;;;-1.34;46.68
65329;BME280;51941;52.210;5.158;2024-01-10T12:36:36;103010.34;;;-1.36;45.92
65329;BME280;51941;52.210;5.158;2024-01-10T12:39:04;103014.13;;;-1.32;45.98
65329;BME280;51941;52.210;5.158;2024-01-10T12:41:32;103010.16;;;-1.46;46.68
65329;BME280;51941;52.210;5.158;2024-01-10T12:44:00;103011.97;;;-1.35;46.66
65329;BME280;51941;52.210;5.158;2024-01-10T12:46:29;103010.69;;;-1.32;47.39
65329;BME280;51941;52.210;5.158;2024-01-10T12:49:00;103001.91;;;-1.21;46.54
65329;BME280;51941;52.210;5.158;2024-01-10T12:51:28;103010.97;;;-1.17;46.98
65329;BME280;51941;52.210;5.158;2024-01-10T12:53:56;103005.69;;;-1.17;47.12